Rice, Kansas
Current Conditions -  °F | °C
As of 6:55 PM on Sunday 23 Nov 2014 (Local Time) from KCNK Reporting Station
Clear Clear  
Wind Chill: 35°   Ceiling: Unl
Heat Index: 41°   Visibility: 10mi
Dew Point: 34°   Wind: 10mph
Humidity: 76%   Direction: 330°NNW
Pressure: 29.62"   Gusts: NA
Location:  39.4716°N, 97.7305°W
Report Text: KCNK 240055Z AUTO 33009KT 10SM CLR 05/01 A2962 RMK AO2 SLP032 T00500011
Loading
Personal Weather Stations






























Interactive Weather Map New forecast layout! Learn more

10-Day Weather Forecast

Advertisements
Track Severe Weather on mobile